< < Back
Terminal Aerodrome Forecast


Current Version              Previous Versions:   1  2  3  4  5  6  7  8  9  

Terminal Aerodrome Forecast

978
FTUS44 KMOB 262355
TAFMOB
TAF
KMOB 262355Z 2700/2724 22005KT P6SM FEW070 SCT200
     FM270900 03005KT 4SM BR BKN015
     FM271500 07008KT P6SM OVC015
     FM271800 09006KT P6SM BKN050 PROB30 2718/2721 4SM TSRA
      BKN050CB=

Latest METAR

303
SAUS80 KWBC 271200 CCA
MTRMOB
METAR KMOB 271156Z 04013KT 7SM FEW050 BKN150 OVC250 18/16 A2978 RMK AO2
SLP082 T01830161 10222 20183 51014


USA.gov is the U.S. government's official web portal to all federal, state and local government web resources and services.